Sawyer County Airport
KHYR : now visible

Airfield :











YOU CAN JOIN US ON...

 
LOGIN :

Register | Disclaimer

   EN    FR    IT 

 









Legend :    VFR   Marginal VFR   IFR   Intensive IFR   Very Intensive IFR
Visi :
Ceiling :
>= 8 km
>= 3000ft
5 to 8 km
1000 to 3000 ft
1500m to 5 km
500 to 1000 ft
800 to 1500m
200 to 500 ft
< 800m
< 200 ft
Symbols :   Thunderstorms  Fog  Heavy snow  Heavy precipitations  Wind > 20 kt






- Airport Elevation : 1216 ft


KHYR - Sawyer County

CURRENT METAR :
  • 181209Z AUTO 00000KT 3/4SM -SN BR VV011 M04/M06 A2972 RMK AO2 P0001 T10441061

EXPIRED METARs :
  • 181206Z AUTO 00000KT 1 1/4SM -SN BR OVC013 M04/M06 A2972 RMK AO2 P0000 T10441061
  • 181147Z AUTO 00000KT 3/4SM -SN BR VV013 M04/M06 A2973 RMK AO2 P0004
  • 181136Z AUTO 00000KT 3/4SM -SN BR VV013 M04/M06 A2973 RMK AO2 P0003 T10441061
  • 181122Z AUTO 00000KT 1/2SM SN FZFG VV009 M04/M06 A2974 RMK AO2 P0003 T10391056
  • 181059Z AUTO 00000KT 3/4SM -SN BR VV012 M04/M06 A2975 RMK AO2 P0001 T10391056
  • 181053Z AUTO 00000KT 1 1/4SM -SN BR OVC012 M04/M06 A2976 RMK AO2 SNB20 SLP097 P0002 T10391061
  • 180953Z AUTO VRB03KT 6SM BR OVC011 M04/M06 A2979 RMK AO2 SLP108 I1001 T10391061

TAF KHYR
Valid from the 18 at 12:00 until the 19 at 12:00 UTC


181152Z 1812/1912 00000KT 1/2SM SN FZFG VV009
FM181500 28006KT 1SM -SN BR OVC012
FM181800 30011G18KT 3SM -SN OVC012
FM182100 30014G20KT 6SM -SHSN OVC015
FM190000 29012G24KT P6SM VCSH OVC015
FM190500 30012G22KT P6SM OVC015



MET'MAP, your aeronautical weather chart ! - Copyright ORBIFLY December 2007 - Disclaimer

ORBIFLY MET'MAP TEAM :

Programming & Development : Alexandra Zaïnal
Concept & original design : Baudouin d'Aumeries
Assistance for programming : Marc-Olivier Méhu
Technical & hardware support : Manuel Goepfert

Contact : metmap@orbifly.com




SOURCES & CREDITS :

   NOAA       Earth
Advisory